createdAt,value
2018-03-26T00:02:23.551Z,100011.94
2018-03-26T00:04:52.839Z,100020.67
2018-03-26T00:07:22.037Z,100011.95
2018-03-26T00:09:51.160Z,100013.72
2018-03-26T00:12:20.268Z,100014.14
2018-03-26T00:14:50.192Z,100022.69
2018-03-26T00:17:19.278Z,100019.22
2018-03-26T00:19:48.405Z,100023.71
2018-03-26T00:22:17.502Z,100021.42
2018-03-26T00:24:46.646Z,100023.41
2018-03-26T00:27:16.638Z,100024.20
2018-03-26T00:29:45.744Z,100015.79
2018-03-26T00:32:14.830Z,100022.70
2018-03-26T00:34:43.937Z,100016.70
2018-03-26T00:37:13.073Z,100015.78
2018-03-26T00:39:42.283Z,100021.30
2018-03-26T00:42:11.457Z,100023.34
2018-03-26T00:44:40.567Z,100023.98
2018-03-26T00:47:09.707Z,100026.06
2018-03-26T00:49:39.614Z,100025.44
2018-03-26T00:52:08.731Z,100030.78
2018-03-26T00:54:38.595Z,100030.45
2018-03-26T00:57:07.737Z,100033.39
2018-03-26T00:59:37.598Z,100024.52
2018-03-26T01:02:06.708Z,100025.38
2018-03-26T01:04:35.819Z,100031.10
2018-03-26T01:07:05.221Z,100033.35
2018-03-26T01:09:34.334Z,100026.51
2018-03-26T01:12:04.211Z,100030.45
2018-03-26T01:14:33.315Z,100027.73
2018-03-26T01:17:02.439Z,100027.05
2018-03-26T01:19:32.294Z,100031.62
2018-03-26T01:22:01.424Z,100031.62
2018-03-26T01:24:30.516Z,100035.86
2018-03-26T01:26:59.924Z,100031.22
2018-03-26T01:29:29.010Z,100035.48
2018-03-26T01:31:58.130Z,100032.86
2018-03-26T01:34:28.013Z,100033.93
2018-03-26T01:36:57.138Z,100038.75
2018-03-26T01:39:26.255Z,100039.39
2018-03-26T01:41:55.374Z,100036.92
2018-03-26T01:44:24.473Z,100046.40
2018-03-26T01:46:53.598Z,100049.44
2018-03-26T01:49:23.468Z,100045.70
2018-03-26T01:51:52.594Z,100049.08
2018-03-26T01:54:21.698Z,100047.31
2018-03-26T01:56:51.557Z,100058.87
2018-03-26T01:59:20.692Z,100057.20
2018-03-26T02:01:49.769Z,100052.34
2018-03-26T02:04:18.898Z,100054.59
2018-03-26T02:06:49.107Z,100057.69
2018-03-26T02:09:18.239Z,100065.83
2018-03-26T02:11:47.338Z,100066.56
2018-03-26T02:14:16.419Z,100064.91
2018-03-26T02:16:45.541Z,100070.64
2018-03-26T02:19:14.653Z,100063.45
2018-03-26T02:21:43.765Z,100061.81
2018-03-26T02:24:12.947Z,100059.73
2018-03-26T02:26:42.067Z,100061.66
2018-03-26T02:29:11.162Z,100061.66
2018-03-26T02:31:41.045Z,100059.04
2018-03-26T02:34:10.194Z,100071.98
2018-03-26T02:36:39.323Z,100072.14
2018-03-26T02:39:08.423Z,100078.60
2018-03-26T02:41:37.547Z,100062.83
2018-03-26T02:44:06.645Z,100069.88
2018-03-26T02:46:36.527Z,100060.05
2018-03-26T02:49:05.620Z,100066.47
2018-03-26T02:51:34.754Z,100079.36
2018-03-26T02:54:04.608Z,100077.65
2018-03-26T02:56:33.718Z,100078.41
2018-03-26T02:59:02.819Z,100082.47
2018-03-26T03:01:32.045Z,100077.49
2018-03-26T03:04:01.927Z,100079.47
2018-03-26T03:06:31.078Z,100077.17
2018-03-26T03:09:00.203Z,100090.17
2018-03-26T03:11:29.314Z,100087.17
2018-03-26T03:13:58.407Z,100087.50
2018-03-26T03:16:27.514Z,100095.14
2018-03-26T03:18:57.379Z,100094.89
2018-03-26T03:21:26.500Z,100103.23
2018-03-26T03:23:55.616Z,100106.06
2018-03-26T03:26:24.895Z,100102.43
2018-03-26T03:28:54.050Z,100114.15
2018-03-26T03:31:23.144Z,100114.30
2018-03-26T03:33:52.282Z,100123.66
2018-03-26T03:36:21.504Z,100123.55
2018-03-26T03:38:50.667Z,100122.86
2018-03-26T03:41:19.803Z,100124.36
2018-03-26T03:43:48.944Z,100125.33
2018-03-26T03:46:18.033Z,100122.70
2018-03-26T03:48:47.167Z,100123.78
2018-03-26T03:51:16.286Z,100125.77
2018-03-26T03:53:45.375Z,100137.11
2018-03-26T03:56:14.537Z,100135.62
2018-03-26T03:58:43.625Z,100137.60
2018-03-26T04:01:12.831Z,100141.19
2018-03-26T04:03:41.940Z,100140.16
2018-03-26T04:06:11.857Z,100144.12
2018-03-26T04:08:41.707Z,100139.40
2018-03-26T04:11:10.816Z,100148.83
2018-03-26T04:13:40.685Z,100143.00
2018-03-26T04:16:10.117Z,100152.95
2018-03-26T04:18:39.211Z,100151.52
2018-03-26T04:21:08.326Z,100150.06
2018-03-26T04:23:37.443Z,100152.27
2018-03-26T04:26:06.558Z,100161.64
2018-03-26T04:28:36.435Z,100161.26
2018-03-26T04:31:05.553Z,100167.47
2018-03-26T04:33:35.450Z,100168.23
2018-03-26T04:36:04.575Z,100168.75
2018-03-26T04:38:34.445Z,100170.20
2018-03-26T04:41:03.532Z,100174.95
2018-03-26T04:43:32.651Z,100175.66
2018-03-26T04:46:01.738Z,100179.56
2018-03-26T04:48:30.861Z,100183.51
2018-03-26T04:51:00.184Z,100186.48
2018-03-26T04:53:29.298Z,100190.05
2018-03-26T04:55:59.209Z,100191.72
2018-03-26T04:58:28.315Z,100196.11
2018-03-26T05:00:57.430Z,100193.48
2018-03-26T05:03:27.660Z,100200.40
2018-03-26T05:05:57.515Z,100206.98
2018-03-26T05:08:26.638Z,100200.03
2018-03-26T05:10:55.772Z,100209.11
2018-03-26T05:13:25.646Z,100206.00
2018-03-26T05:15:54.762Z,100210.89
2018-03-26T05:18:23.869Z,100207.30
2018-03-26T05:20:53.180Z,100207.13
2018-03-26T05:23:22.282Z,100204.50
2018-03-26T05:25:51.398Z,100214.46
2018-03-26T05:28:20.496Z,100216.80
2018-03-26T05:30:49.590Z,100209.77
2018-03-26T05:33:18.775Z,100212.76
2018-03-26T05:35:47.874Z,100213.28
2018-03-26T05:38:16.984Z,100218.92
2018-03-26T05:40:46.105Z,100206.86
2018-03-26T05:43:15.207Z,100215.01
2018-03-26T05:45:45.069Z,100216.36
2018-03-26T05:48:14.212Z,100224.13
2018-03-26T05:50:44.090Z,100221.92
2018-03-26T05:53:13.230Z,100225.55
2018-03-26T05:55:43.115Z,100229.19
2018-03-26T05:58:12.258Z,100231.08
2018-03-26T06:00:41.390Z,100234.28
2018-03-26T06:03:10.495Z,100243.09
2018-03-26T06:05:39.606Z,100242.36
2018-03-26T06:08:09.494Z,100245.38
2018-03-26T06:10:38.615Z,100244.63
2018-03-26T06:13:08.498Z,100252.08
2018-03-26T06:15:37.632Z,100247.67
2018-03-26T06:18:07.620Z,100255.39
2018-03-26T06:20:36.757Z,100262.68
2018-03-26T06:23:05.864Z,100251.64
2018-03-26T06:25:34.968Z,100269.68
2018-03-26T06:28:04.069Z,100265.74
2018-03-26T06:30:33.223Z,100262.39
2018-03-26T06:33:03.077Z,100268.45
2018-03-26T06:38:05.602Z,100270.75
2018-03-26T06:40:34.727Z,100284.82
2018-03-26T06:43:03.833Z,100293.36
2018-03-26T06:45:32.970Z,100296.41
2018-03-26T06:48:02.841Z,100295.72
2018-03-26T06:50:31.952Z,100298.70
2018-03-26T06:53:01.058Z,100300.63
2018-03-26T06:55:30.188Z,100307.26
2018-03-26T06:58:00.060Z,100306.22
2018-03-26T07:00:29.164Z,100304.17
2018-03-26T07:02:58.287Z,100309.97
2018-03-26T07:05:27.381Z,100312.33
2018-03-26T07:07:56.483Z,100314.36
2018-03-26T07:10:25.582Z,100321.75
2018-03-26T07:12:54.689Z,100327.23
2018-03-26T07:15:23.802Z,100331.67
2018-03-26T07:17:52.892Z,100330.52
2018-03-26T07:20:22.015Z,100329.77
2018-03-26T07:22:51.110Z,100333.42
2018-03-26T07:25:21.025Z,100342.19
2018-03-26T07:27:50.116Z,100330.56
2018-03-26T07:30:19.244Z,100342.73
2018-03-26T07:32:49.111Z,100338.95
2018-03-26T07:35:18.243Z,100343.51
2018-03-26T07:37:48.118Z,100350.09
2018-03-26T07:40:17.234Z,100341.05
2018-03-26T07:42:46.340Z,100333.97
2018-03-26T07:45:15.449Z,100339.28
2018-03-26T07:47:45.300Z,100349.25
2018-03-26T07:50:14.442Z,100352.09
2018-03-26T07:52:43.535Z,100355.53
2018-03-26T07:55:12.632Z,100361.52
2018-03-26T07:57:42.522Z,100362.70
2018-03-26T08:00:11.663Z,100362.40
2018-03-26T08:02:40.762Z,100360.73
2018-03-26T08:05:09.874Z,100366.47
2018-03-26T08:07:38.984Z,100367.95
2018-03-26T08:10:08.095Z,100370.70
2018-03-26T08:12:37.195Z,100380.66
2018-03-26T08:15:06.300Z,100374.98
2018-03-26T08:17:35.444Z,100381.80
2018-03-26T08:20:04.576Z,100375.73
2018-03-26T08:22:33.685Z,100378.77
2018-03-26T08:25:02.804Z,100374.16
2018-03-26T08:27:31.890Z,100376.95
2018-03-26T08:30:01.016Z,100386.54
2018-03-26T08:32:30.142Z,100386.92
2018-03-26T08:34:59.261Z,100387.41
2018-03-26T08:37:29.143Z,100393.45
2018-03-26T08:39:58.247Z,100400.16
2018-03-26T08:42:27.425Z,100398.57
2018-03-26T08:44:56.481Z,100396.83
2018-03-26T08:47:25.580Z,100399.19
2018-03-26T08:49:54.719Z,100396.19
2018-03-26T08:52:23.804Z,100399.49
2018-03-26T08:54:52.916Z,100398.90
2018-03-26T08:57:22.014Z,100403.94
2018-03-26T08:59:51.897Z,100400.50
2018-03-26T09:02:21.012Z,100402.42
2018-03-26T09:04:50.161Z,100399.48
2018-03-26T09:07:19.262Z,100406.18
2018-03-26T09:09:48.352Z,100403.55
2018-03-26T09:12:17.483Z,100412.34
2018-03-26T09:14:46.577Z,100410.90
2018-03-26T09:17:15.691Z,100408.61
2018-03-26T09:19:45.582Z,100409.48
2018-03-26T09:22:14.719Z,100404.40
2018-03-26T09:24:43.829Z,100405.86
2018-03-26T09:27:12.915Z,100410.48
2018-03-26T09:29:42.050Z,100408.55
2018-03-26T09:32:11.139Z,100405.41
2018-03-26T09:34:40.260Z,100413.61
2018-03-26T09:37:09.375Z,100418.06
2018-03-26T09:39:38.536Z,100413.36
2018-03-26T09:42:08.395Z,100416.28
2018-03-26T09:44:37.531Z,100416.59
2018-03-26T09:47:06.643Z,100417.98
2018-03-26T09:49:35.754Z,100427.14
2018-03-26T09:52:05.663Z,100418.83
2018-03-26T09:54:35.519Z,100422.50
2018-03-26T09:57:05.599Z,100427.59
2018-03-26T09:59:34.827Z,100430.36
2018-03-26T10:02:03.931Z,100433.09
2018-03-26T10:04:33.056Z,100439.87
2018-03-26T10:07:02.206Z,100444.81
2018-03-26T10:09:31.324Z,100442.04
2018-03-26T10:12:00.438Z,100450.37
2018-03-26T10:14:29.608Z,100454.72
2018-03-26T10:16:58.739Z,100458.14
2018-03-26T10:19:27.841Z,100456.17
2018-03-26T10:21:56.947Z,100460.24
2018-03-26T10:24:26.860Z,100457.37
2018-03-26T10:26:56.743Z,100464.40
2018-03-26T10:29:25.876Z,100457.53
2018-03-26T10:31:54.966Z,100459.77
2018-03-26T10:34:24.088Z,100464.64
2018-03-26T10:36:53.189Z,100470.75
2018-03-26T10:39:22.297Z,100462.99
2018-03-26T10:41:51.411Z,100473.30
2018-03-26T10:44:21.327Z,100473.78
2018-03-26T10:46:50.428Z,100472.16
2018-03-26T10:49:20.311Z,100479.84
2018-03-26T10:51:49.456Z,100481.47
2018-03-26T10:54:19.344Z,100480.19
2018-03-26T10:56:48.514Z,100486.44
2018-03-26T10:59:17.627Z,100481.39
2018-03-26T11:01:46.778Z,100485.93
2018-03-26T11:04:15.895Z,100487.20
2018-03-26T11:06:45.009Z,100484.23
2018-03-26T11:09:20.261Z,100488.80
2018-03-26T11:11:51.023Z,100485.22
2018-03-26T11:14:20.146Z,100485.36
2018-03-26T11:16:49.282Z,100487.44
2018-03-26T11:19:18.384Z,100488.04
2018-03-26T11:21:48.279Z,100497.61
2018-03-26T11:24:17.418Z,100489.45
2018-03-26T11:26:46.677Z,100482.89
2018-03-26T11:29:16.552Z,100485.28
2018-03-26T11:31:45.656Z,100484.06
2018-03-26T11:34:14.787Z,100480.23
2018-03-26T11:36:44.760Z,100484.30
2018-03-26T11:39:13.889Z,100487.11
2018-03-26T11:41:43.840Z,100489.27
2018-03-26T11:44:13.672Z,100489.92
2018-03-26T11:46:42.806Z,100492.61
2018-03-26T11:49:11.936Z,100494.20
2018-03-26T11:51:41.046Z,100492.95
2018-03-26T11:54:10.142Z,100488.20
2018-03-26T11:56:39.256Z,100497.45
2018-03-26T11:59:08.382Z,100492.66
2018-03-26T12:01:38.312Z,100494.04
2018-03-26T12:04:07.515Z,100494.24
2018-03-26T12:06:36.654Z,100499.11
2018-03-26T12:09:06.528Z,100504.40
2018-03-26T12:11:36.477Z,100505.87
2018-03-26T12:14:05.621Z,100510.14
2018-03-26T12:16:34.740Z,100506.16
2018-03-26T12:19:03.849Z,100508.80
2018-03-26T12:21:32.964Z,100505.27
2018-03-26T12:24:19.740Z,100505.34
2018-03-26T12:26:48.850Z,100509.57
2018-03-26T12:29:36.168Z,100506.57
2018-03-26T12:32:05.277Z,100504.80
2018-03-26T12:34:51.867Z,100507.41
2018-03-26T12:37:20.974Z,100500.11
2018-03-26T12:39:50.114Z,100497.91
2018-03-26T12:42:19.211Z,100503.66
2018-03-26T12:45:05.879Z,100503.24
2018-03-26T12:47:35.006Z,100501.53
2018-03-26T12:50:04.133Z,100504.83
2018-03-26T12:52:47.676Z,100507.00
2018-03-26T12:55:16.807Z,100499.66
2018-03-26T12:58:03.457Z,100512.41
2018-03-26T13:00:32.587Z,100507.18
2018-03-26T13:03:01.745Z,100511.23
2018-03-26T13:05:30.857Z,100503.12
2018-03-26T13:08:00.019Z,100506.19
2018-03-26T13:10:29.130Z,100501.70
2018-03-26T13:12:58.235Z,100505.16
2018-03-26T13:15:27.365Z,100494.77
2018-03-26T13:17:56.460Z,100507.93
2018-03-26T13:20:26.365Z,100507.51
2018-03-26T13:22:56.238Z,100501.89
2018-03-26T13:25:25.370Z,100506.19
2018-03-26T13:27:54.497Z,100504.11
2018-03-26T13:30:24.412Z,100503.12
2018-03-26T13:32:54.309Z,100508.35
2018-03-26T13:35:23.468Z,100507.00
2018-03-26T13:37:52.586Z,100504.05
2018-03-26T13:40:22.479Z,100506.58
2018-03-26T13:42:51.607Z,100508.73
2018-03-26T13:45:21.473Z,100507.51
2018-03-26T13:47:50.591Z,100501.34
2018-03-26T13:50:19.707Z,100511.59
2018-03-26T13:52:49.619Z,100505.85
2018-03-26T13:55:19.486Z,100511.41
2018-03-26T13:57:48.663Z,100509.00
2018-03-26T14:00:17.762Z,100514.36
2018-03-26T14:02:46.884Z,100509.89
2018-03-26T14:05:15.994Z,100505.47
2018-03-26T14:07:45.115Z,100505.07
2018-03-26T14:10:31.895Z,100510.05
2018-03-26T14:13:18.681Z,100509.12
2018-03-26T14:16:05.374Z,100510.03
2018-03-26T14:18:34.486Z,100510.69
2018-03-26T14:21:03.631Z,100509.17
2018-03-26T14:23:32.752Z,100508.20
2018-03-26T14:26:01.887Z,100510.00
2018-03-26T14:28:31.016Z,100507.66
2018-03-26T14:31:00.119Z,100498.76
2018-03-26T14:33:29.590Z,100501.47
2018-03-26T14:35:59.472Z,100496.58
2018-03-26T14:38:28.628Z,100491.89
2018-03-26T14:40:57.730Z,100491.27
2018-03-26T14:43:26.868Z,100499.12
2018-03-26T14:45:56.024Z,100501.63
2018-03-26T14:48:25.163Z,100487.39
2018-03-26T14:50:54.295Z,100484.08
2018-03-26T14:53:23.425Z,100483.81
2018-03-26T14:55:52.550Z,100485.23
2018-03-26T14:58:21.704Z,100487.87
2018-03-26T15:00:50.828Z,100487.46
2018-03-26T15:03:19.944Z,100493.66
2018-03-26T15:05:49.849Z,100488.00
2018-03-26T15:08:19.754Z,100485.08
2018-03-26T15:10:49.702Z,100489.53
2018-03-26T15:13:18.860Z,100487.15
2018-03-26T15:15:47.991Z,100484.06
2018-03-26T15:18:17.140Z,100488.42
2018-03-26T15:20:47.017Z,100484.48
2018-03-26T15:23:19.240Z,100484.52
2018-03-26T15:25:48.416Z,100491.34
2018-03-26T15:28:17.570Z,100494.70
2018-03-26T15:30:46.681Z,100496.36
2018-03-26T15:33:15.892Z,100488.97
2018-03-26T15:35:44.987Z,100492.62
2018-03-26T15:38:14.328Z,100492.08
2018-03-26T15:40:44.203Z,100484.98
2018-03-26T15:43:13.305Z,100489.97
2018-03-26T15:45:43.246Z,100484.52
2018-03-26T15:48:12.364Z,100484.02
2018-03-26T15:50:41.508Z,100478.26
2018-03-26T15:53:10.645Z,100484.72
2018-03-26T15:55:39.791Z,100485.86
2018-03-26T15:58:08.893Z,100490.94
2018-03-26T16:00:38.044Z,100491.56
2018-03-26T16:03:12.597Z,100491.73
2018-03-26T16:05:41.722Z,100498.86
2018-03-26T16:08:11.750Z,100495.58
2018-03-26T16:10:41.622Z,100500.87
2018-03-26T16:13:10.774Z,100505.33
2018-03-26T16:15:39.906Z,100504.47
2018-03-26T16:18:09.032Z,100511.87
2018-03-26T16:20:38.936Z,100514.20
2018-03-26T16:23:08.087Z,100519.91
2018-03-26T16:25:37.190Z,100516.38
2018-03-26T16:28:06.356Z,100516.12
2018-03-26T16:30:35.505Z,100524.13
2018-03-26T16:33:04.628Z,100527.78
2018-03-26T16:35:38.080Z,100534.48
2018-03-26T16:38:07.260Z,100530.66
2018-03-26T16:40:36.392Z,100530.92
2018-03-26T16:43:06.376Z,100537.19
2018-03-26T16:45:35.605Z,100534.26
2018-03-26T16:48:04.735Z,100535.44
2018-03-26T16:50:33.951Z,100536.13
2018-03-26T16:53:03.090Z,100535.70
2018-03-26T16:55:32.241Z,100534.47
2018-03-26T16:58:01.383Z,100529.67
2018-03-26T17:00:31.294Z,100535.83
2018-03-26T17:03:00.424Z,100536.69
2018-03-26T17:05:30.247Z,100543.84
2018-03-26T17:07:59.338Z,100547.91
2018-03-26T17:10:28.474Z,100546.31
2018-03-26T17:12:57.633Z,100545.86
2018-03-26T17:15:26.746Z,100549.81
2018-03-26T17:17:55.890Z,100539.52
2018-03-26T17:20:25.777Z,100540.62
2018-03-26T17:22:54.920Z,100545.95
2018-03-26T17:25:24.042Z,100541.14
2018-03-26T17:27:53.155Z,100545.48
2018-03-26T17:30:22.287Z,100546.84
2018-03-26T17:32:51.431Z,100546.30
2018-03-26T17:35:20.522Z,100549.80
2018-03-26T17:37:49.688Z,100554.05
2018-03-26T17:40:18.816Z,100557.97
2018-03-26T17:42:47.958Z,100554.53
2018-03-26T17:45:17.108Z,100559.53
2018-03-26T17:47:46.961Z,100556.14
2018-03-26T17:50:16.101Z,100563.20
2018-03-26T17:52:45.246Z,100571.51
2018-03-26T17:55:15.139Z,100573.94
2018-03-26T17:57:44.299Z,100572.80
2018-03-26T18:00:13.378Z,100569.90
2018-03-26T18:02:42.574Z,100576.95
2018-03-26T18:05:13.257Z,100579.70
2018-03-26T18:07:42.374Z,100583.14
2018-03-26T18:10:11.770Z,100585.70
2018-03-26T18:12:41.675Z,100589.09
2018-03-26T18:15:10.818Z,100603.98
2018-03-26T18:17:40.480Z,100603.69
2018-03-26T18:20:10.352Z,100603.63
2018-03-26T18:22:41.078Z,100606.78
2018-03-26T18:25:10.273Z,100614.08
2018-03-26T18:27:39.427Z,100620.05
2018-03-26T18:30:09.344Z,100617.31
2018-03-26T18:32:38.518Z,100618.89
2018-03-26T18:35:08.421Z,100628.70
2018-03-26T18:37:37.564Z,100631.13
2018-03-26T18:40:06.709Z,100640.16
2018-03-26T18:42:35.848Z,100646.13
2018-03-26T18:45:04.957Z,100648.77
2018-03-26T18:47:34.092Z,100653.08
2018-03-26T18:50:03.256Z,100652.59
2018-03-26T18:52:32.374Z,100650.34
2018-03-26T18:55:02.295Z,100662.42
2018-03-26T18:57:32.206Z,100661.06
2018-03-26T19:00:01.336Z,100660.14
2018-03-26T19:02:30.472Z,100663.03
2018-03-26T19:04:59.649Z,100663.24
2018-03-26T19:07:28.803Z,100667.31
2018-03-26T19:09:58.752Z,100669.55
2018-03-26T19:12:27.945Z,100672.45
2018-03-26T19:14:57.101Z,100668.52
2018-03-26T19:17:26.242Z,100672.59
2018-03-26T19:19:55.382Z,100672.64
2018-03-26T19:22:24.513Z,100678.89
2018-03-26T19:24:54.477Z,100678.53
2018-03-26T19:27:23.619Z,100681.98
2018-03-26T19:29:53.531Z,100681.72
2018-03-26T19:32:22.659Z,100682.94
2018-03-26T19:34:51.897Z,100688.57
2018-03-26T19:37:21.072Z,100684.20
2018-03-26T19:39:50.196Z,100683.67
2018-03-26T19:42:19.368Z,100693.25
2018-03-26T19:44:48.551Z,100692.94
2018-03-26T19:47:18.443Z,100690.56
2018-03-26T19:49:47.589Z,100693.52
2018-03-26T19:52:17.491Z,100691.23
2018-03-26T19:54:46.613Z,100687.65
2018-03-26T19:57:15.744Z,100687.65
2018-03-26T19:59:44.926Z,100688.36
2018-03-26T20:02:14.084Z,100686.44
2018-03-26T20:04:43.208Z,100687.20
2018-03-26T20:07:12.360Z,100682.92
2018-03-26T20:09:41.481Z,100679.49
2018-03-26T20:12:10.671Z,100686.25
2018-03-26T20:14:39.818Z,100684.65
2018-03-26T20:17:08.944Z,100677.97
2018-03-26T20:19:38.080Z,100686.78
2018-03-26T20:22:07.216Z,100684.36
2018-03-26T20:24:36.344Z,100682.97
2018-03-26T20:27:06.230Z,100684.30
2018-03-26T20:29:35.341Z,100679.86
2018-03-26T20:32:05.261Z,100686.75
2018-03-26T20:34:35.289Z,100688.97
2018-03-26T20:37:04.408Z,100686.36
2018-03-26T20:39:33.529Z,100688.17
2018-03-26T20:42:02.663Z,100690.41
2018-03-26T20:44:33.827Z,100688.09
2018-03-26T20:47:03.880Z,100680.15
2018-03-26T20:49:33.839Z,100683.36
2018-03-26T20:52:02.978Z,100680.78
2018-03-26T20:54:33.267Z,100685.91
2018-03-26T20:57:02.453Z,100684.59
2018-03-26T20:59:31.617Z,100683.36
2018-03-26T21:02:01.496Z,100680.95
2018-03-26T21:04:31.016Z,100677.20
2018-03-26T21:07:00.181Z,100686.00
2018-03-26T21:09:30.286Z,100686.46
2018-03-26T21:12:01.042Z,100679.27
2018-03-26T21:14:30.205Z,100684.30
2018-03-26T21:16:59.372Z,100686.26
2018-03-26T21:19:28.985Z,100682.95
2018-03-26T21:21:58.099Z,100685.04
2018-03-26T21:24:28.021Z,100681.87
2018-03-26T21:26:57.353Z,100682.71
2018-03-26T21:29:26.538Z,100683.43
2018-03-26T21:31:55.743Z,100681.05
2018-03-26T21:34:24.871Z,100687.55
2018-03-26T21:36:55.027Z,100679.77
2018-03-26T21:39:24.208Z,100683.37
2018-03-26T21:41:54.051Z,100681.52
2018-03-26T21:44:23.157Z,100684.41
2018-03-26T21:46:52.251Z,100685.95
2018-03-26T21:49:21.796Z,100693.69
2018-03-26T21:51:51.096Z,100694.47
2018-03-26T21:54:20.305Z,100692.93
2018-03-26T21:56:50.198Z,100694.93
2018-03-26T21:59:20.122Z,100696.44
2018-03-26T22:01:50.170Z,100694.90
2018-03-26T22:04:19.417Z,100695.50
2018-03-26T22:06:48.544Z,100697.03
2018-03-26T22:09:17.680Z,100699.19
2018-03-26T22:11:46.807Z,100703.42
2018-03-26T22:14:16.155Z,100701.05
2018-03-26T22:16:45.267Z,100705.43
2018-03-26T22:19:14.416Z,100701.63
2018-03-26T22:21:43.677Z,100703.44
2018-03-26T22:24:12.823Z,100698.00
2018-03-26T22:26:41.930Z,100694.77
2018-03-26T22:29:11.143Z,100696.86
2018-03-26T22:31:41.009Z,100693.67
2018-03-26T22:34:11.000Z,100695.76
2018-03-26T22:36:40.107Z,100689.72
2018-03-26T22:39:09.259Z,100685.77
2018-03-26T22:41:38.397Z,100696.09
2018-03-26T22:44:08.313Z,100694.57
2018-03-26T22:46:38.285Z,100689.56
2018-03-26T22:49:07.488Z,100682.59
2018-03-26T22:51:36.707Z,100688.13
2018-03-26T22:54:05.830Z,100682.88
2018-03-26T22:56:35.018Z,100682.70
2018-03-26T22:59:04.973Z,100684.06
2018-03-26T23:01:34.101Z,100680.73
2018-03-26T23:04:03.230Z,100683.03
2018-03-26T23:06:32.364Z,100683.47
2018-03-26T23:09:01.791Z,100685.28
2018-03-26T23:11:30.903Z,100688.71
2018-03-26T23:14:02.014Z,100689.33
2018-03-26T23:16:31.136Z,100695.09
2018-03-26T23:19:02.305Z,100690.32
2018-03-26T23:21:31.417Z,100697.19
2018-03-26T23:24:01.794Z,100691.39
2018-03-26T23:26:30.899Z,100691.29
2018-03-26T23:28:59.995Z,100685.83
2018-03-26T23:31:29.118Z,100690.11
2018-03-26T23:33:58.251Z,100688.63
2018-03-26T23:36:27.330Z,100689.33
2018-03-26T23:38:56.449Z,100689.01
2018-03-26T23:41:25.550Z,100691.58
2018-03-26T23:43:55.459Z,100698.52
2018-03-26T23:46:24.563Z,100695.25
2018-03-26T23:48:54.435Z,100695.53
2018-03-26T23:51:23.555Z,100697.35
2018-03-26T23:53:52.678Z,100700.66
2018-03-26T23:56:21.755Z,100689.74
2018-03-26T23:58:51.676Z,100696.83
